Time;durP1;ratioP1;P1;durP2;ratioP2;P2;SDS_P1;SDS_P2;PMS_P1;PMS_P2;Temp;Humidity;BMP_temperature;BMP_pressure;BME280_temperature;BME280_humidity;BME280_pressure;Samples;Min_cycle;Max_cycle;Signal;HPM_P1;HPM_P2
2023/04/11 00:02:21;;;;;;;1.80;1.40;;;;;;;;;;7390750;19;20471;-70
2023/04/11 00:04:47;;;;;;;2.30;1.40;;;;;;;;;;7385890;19;20023;-70
2023/04/11 00:07:13;;;;;;;2.15;1.30;;;;;;;;;;7389959;19;20002;-70
2023/04/11 00:09:38;;;;;;;3.03;1.30;;;;;;;;;;7390047;19;19999;-69
2023/04/11 00:12:04;;;;;;;2.17;1.30;;;;;;;;;;7388417;19;20006;-70
2023/04/11 00:14:32;;;;;;;1.50;1.30;;;;;;;;;;7387876;19;20006;-70
2023/04/11 00:16:59;;;;;;;1.80;1.42;;;;;;;;;;7390223;19;20006;-69
2023/04/11 00:19:28;;;;;;;2.67;1.48;;;;;;;;;;7389679;19;20007;-69
2023/04/11 00:21:57;;;;;;;2.75;1.60;;;;;;;;;;7389010;19;20110;-69
2023/04/11 00:24:24;;;;;;;2.35;1.52;;;;;;;;;;7387363;19;20508;-69
2023/04/11 00:26:50;;;;;;;1.30;1.20;;;;;;;;;;7391499;19;20044;-68
2023/04/11 00:29:15;;;;;;;2.53;1.60;;;;;;;;;;7389776;19;19999;-70
2023/04/11 00:31:46;;;;;;;2.67;1.65;;;;;;;;;;7388083;19;20464;-69
2023/04/11 00:34:11;;;;;;;2.55;1.63;;;;;;;;;;7385295;19;20341;-70
2023/04/11 00:36:36;;;;;;;3.15;1.67;;;;;;;;;;7389342;19;20003;-68
2023/04/11 00:39:02;;;;;;;2.53;1.52;;;;;;;;;;7389564;19;20027;-69
2023/04/11 00:41:28;;;;;;;2.30;1.50;;;;;;;;;;7386206;19;20563;-69
2023/04/11 00:43:53;;;;;;;2.33;1.50;;;;;;;;;;7387870;19;19999;-69
2023/04/11 00:46:19;;;;;;;2.60;1.40;;;;;;;;;;7387509;19;20026;-69
2023/04/11 00:48:45;;;;;;;4.20;1.50;;;;;;;;;;7388580;19;20006;-69
2023/04/11 00:51:11;;;;;;;3.50;1.40;;;;;;;;;;7387895;19;20013;-69
2023/04/11 00:53:37;;;;;;;1.45;1.13;;;;;;;;;;7388542;19;20006;-69
2023/04/11 00:56:02;;;;;;;2.55;1.30;;;;;;;;;;7388641;19;20395;-69
2023/04/11 00:58:28;;;;;;;1.95;1.10;;;;;;;;;;7388807;19;20044;-69
2023/04/11 01:00:54;;;;;;;1.77;1.20;;;;;;;;;;7386453;19;19995;-68
2023/04/11 01:03:21;;;;;;;2.38;1.23;;;;;;;;;;7387557;19;19999;-69
2023/04/11 01:05:51;;;;;;;2.13;1.00;;;;;;;;;;7388873;19;20002;-69
2023/04/11 01:08:18;;;;;;;2.30;1.15;;;;;;;;;;7387667;19;20006;-69
2023/04/11 01:10:43;;;;;;;1.20;1.10;;;;;;;;;;7385965;19;19999;-69
2023/04/11 01:13:09;;;;;;;1.40;1.02;;;;;;;;;;7388272;19;20016;-70
2023/04/11 01:15:34;;;;;;;1.90;1.05;;;;;;;;;;7388285;19;20027;-70
2023/04/11 01:18:00;;;;;;;1.60;0.98;;;;;;;;;;7388572;19;19999;-69
2023/04/11 01:20:27;;;;;;;2.08;1.17;;;;;;;;;;7384915;19;20002;-69
2023/04/11 01:22:54;;;;;;;1.80;0.90;;;;;;;;;;7388017;19;20011;-69
2023/04/11 01:25:21;;;;;;;2.42;1.20;;;;;;;;;;7388587;19;20006;-69
2023/04/11 01:27:47;;;;;;;3.15;1.20;;;;;;;;;;7387995;19;20017;-69
2023/04/11 01:30:13;;;;;;;1.83;1.00;;;;;;;;;;7386484;19;20384;-71
2023/04/11 01:32:38;;;;;;;1.38;1.13;;;;;;;;;;7386245;19;20002;-70
2023/04/11 01:35:04;;;;;;;1.92;1.00;;;;;;;;;;7391121;19;20003;-70
2023/04/11 01:37:30;;;;;;;1.63;1.15;;;;;;;;;;7388116;19;20074;-69
2023/04/11 01:39:55;;;;;;;2.22;1.20;;;;;;;;;;7387406;19;20299;-69
2023/04/11 01:42:22;;;;;;;2.67;1.10;;;;;;;;;;7386506;19;20002;-70
2023/04/11 01:44:49;;;;;;;5.07;1.40;;;;;;;;;;7385198;19;20013;-70
2023/04/11 01:47:15;;;;;;;2.85;1.20;;;;;;;;;;7387241;19;20503;-70
2023/04/11 01:49:41;;;;;;;3.33;1.15;;;;;;;;;;7387136;19;20005;-69
2023/04/11 01:52:06;;;;;;;2.28;1.20;;;;;;;;;;7385656;19;20007;-70
2023/04/11 01:54:32;;;;;;;2.45;1.38;;;;;;;;;;7388533;19;20005;-70
2023/04/11 01:56:57;;;;;;;2.90;1.30;;;;;;;;;;7386556;19;20330;-69
2023/04/11 01:59:22;;;;;;;2.28;1.10;;;;;;;;;;7386042;19;20070;-69
2023/04/11 02:01:48;;;;;;;1.60;1.23;;;;;;;;;;7384631;19;20657;-70
2023/04/11 02:04:13;;;;;;;2.03;1.08;;;;;;;;;;7383528;19;20457;-69
2023/04/11 02:06:38;;;;;;;5.47;1.17;;;;;;;;;;7386119;19;20564;-70
2023/04/11 02:09:03;;;;;;;2.13;1.10;;;;;;;;;;7386849;19;20006;-70
2023/04/11 02:11:29;;;;;;;1.98;1.05;;;;;;;;;;7384938;19;20005;-70
2023/04/11 02:13:55;;;;;;;4.00;1.25;;;;;;;;;;7385362;19;20023;-71
2023/04/11 02:16:24;;;;;;;2.30;0.98;;;;;;;;;;7385296;19;20003;-71
2023/04/11 02:18:50;;;;;;;2.40;0.98;;;;;;;;;;7386037;19;20074;-69
2023/04/11 02:21:16;;;;;;;2.63;0.80;;;;;;;;;;7386556;19;19998;-69
2023/04/11 02:23:41;;;;;;;2.08;0.95;;;;;;;;;;7384972;19;20002;-69
2023/04/11 02:26:06;;;;;;;4.25;0.80;;;;;;;;;;7385354;19;20006;-70
2023/04/11 02:28:32;;;;;;;5.50;1.20;;;;;;;;;;7385966;19;19999;-70
2023/04/11 02:30:57;;;;;;;2.63;1.13;;;;;;;;;;7384152;19;20003;-69
2023/04/11 02:33:23;;;;;;;2.45;1.30;;;;;;;;;;7384895;19;20005;-69
2023/04/11 02:35:48;;;;;;;2.28;1.15;;;;;;;;;;7386844;19;20001;-69
2023/04/11 02:38:13;;;;;;;2.88;1.13;;;;;;;;;;7385329;19;20006;-71
2023/04/11 02:40:39;;;;;;;3.03;1.35;;;;;;;;;;7383345;19;20002;-70
2023/04/11 02:43:04;;;;;;;3.92;1.10;;;;;;;;;;7385079;19;20015;-70
2023/04/11 02:45:30;;;;;;;2.72;1.27;;;;;;;;;;7384524;19;20011;-70
2023/04/11 02:47:55;;;;;;;3.50;1.30;;;;;;;;;;7383366;19;20535;-70
2023/04/11 02:50:21;;;;;;;1.98;1.02;;;;;;;;;;7383901;19;20012;-70
2023/04/11 02:52:48;;;;;;;4.25;1.30;;;;;;;;;;7385162;19;20129;-70
2023/04/11 02:55:13;;;;;;;3.03;0.90;;;;;;;;;;7385070;19;20456;-69
2023/04/11 02:57:39;;;;;;;2.15;0.93;;;;;;;;;;7385755;19;20038;-70
2023/04/11 03:00:06;;;;;;;1.52;1.05;;;;;;;;;;7384099;19;20006;-70
2023/04/11 03:02:31;;;;;;;3.45;0.88;;;;;;;;;;7382631;19;20003;-70
2023/04/11 03:04:57;;;;;;;3.97;1.17;;;;;;;;;;7383058;19;20070;-70
2023/04/11 03:07:23;;;;;;;1.65;1.05;;;;;;;;;;7384816;19;20462;-70
2023/04/11 03:09:48;;;;;;;3.10;1.33;;;;;;;;;;7383613;19;20003;-70
2023/04/11 03:12:13;;;;;;;1.13;1.00;;;;;;;;;;7390697;19;20003;-70
2023/04/11 03:14:39;;;;;;;3.97;1.25;;;;;;;;;;7389651;19;20003;-70
2023/04/11 03:17:04;;;;;;;1.58;1.05;;;;;;;;;;7391896;19;20480;-70
2023/04/11 03:19:29;;;;;;;3.17;1.23;;;;;;;;;;7392505;19;20355;-70
2023/04/11 03:21:55;;;;;;;2.60;1.30;;;;;;;;;;7388164;19;19998;-69
2023/04/11 03:24:21;;;;;;;4.88;1.17;;;;;;;;;;7390268;19;20833;-69
2023/04/11 03:26:46;;;;;;;2.45;0.98;;;;;;;;;;7391612;19;20003;-70
2023/04/11 03:29:11;;;;;;;2.15;1.30;;;;;;;;;;7391522;19;19998;-69
2023/04/11 03:31:37;;;;;;;1.75;1.00;;;;;;;;;;7390525;19;20031;-69
2023/04/11 03:34:02;;;;;;;1.05;0.95;;;;;;;;;;7393146;19;20002;-70
2023/04/11 03:36:28;;;;;;;3.55;1.40;;;;;;;;;;7391153;19;19999;-70
2023/04/11 03:38:54;;;;;;;7.43;1.20;;;;;;;;;;7391198;19;20003;-69
2023/04/11 03:41:19;;;;;;;1.55;1.20;;;;;;;;;;7391065;19;19994;-70
2023/04/11 03:43:44;;;;;;;3.13;1.17;;;;;;;;;;7390608;19;20011;-69
2023/04/11 03:46:10;;;;;;;2.08;1.05;;;;;;;;;;7391632;19;19995;-69
2023/04/11 03:48:36;;;;;;;2.53;1.20;;;;;;;;;;7391661;19;20528;-69
2023/04/11 03:51:02;;;;;;;3.85;1.15;;;;;;;;;;7390864;19;20002;-69
2023/04/11 03:53:27;;;;;;;2.08;1.00;;;;;;;;;;7390825;19;20346;-70
2023/04/11 03:55:53;;;;;;;3.35;1.00;;;;;;;;;;7390774;19;20032;-69
2023/04/11 03:58:19;;;;;;;2.97;1.42;;;;;;;;;;7394703;19;19998;-70
2023/04/11 04:00:45;;;;;;;2.95;1.23;;;;;;;;;;7392480;19;20772;-69
2023/04/11 04:03:12;;;;;;;3.40;1.23;;;;;;;;;;7389663;19;20013;-68
2023/04/11 04:05:39;;;;;;;3.47;1.30;;;;;;;;;;7390648;19;20003;-69
2023/04/11 04:08:04;;;;;;;4.78;1.23;;;;;;;;;;7390774;19;20003;-69
2023/04/11 04:10:30;;;;;;;4.20;1.05;;;;;;;;;;7387866;19;20005;-69
2023/04/11 04:12:55;;;;;;;2.42;1.15;;;;;;;;;;7390090;19;20011;-72
2023/04/11 04:15:20;;;;;;;2.67;1.10;;;;;;;;;;7390877;19;20547;-70
2023/04/11 04:17:46;;;;;;;1.40;1.10;;;;;;;;;;7390179;19;19998;-69
2023/04/11 04:20:11;;;;;;;4.13;1.15;;;;;;;;;;7388027;19;20002;-70
2023/04/11 04:22:37;;;;;;;2.30;1.02;;;;;;;;;;7388152;19;20007;-68
2023/04/11 04:25:02;;;;;;;4.50;1.08;;;;;;;;;;7393577;19;20006;-69
2023/04/11 04:27:28;;;;;;;2.03;0.93;;;;;;;;;;7393254;19;20474;-70
2023/04/11 04:29:55;;;;;;;1.63;1.00;;;;;;;;;;7393841;19;19998;-68
2023/04/11 04:32:21;;;;;;;1.95;1.13;;;;;;;;;;7391582;19;19999;-68
2023/04/11 04:34:49;;;;;;;2.75;1.17;;;;;;;;;;7389202;19;20058;-68
2023/04/11 04:37:21;;;;;;;3.50;1.40;;;;;;;;;;7391894;19;20021;-70
2023/04/11 04:40:06;;;;;;;3.33;1.20;;;;;;;;;;7390967;19;20095;-70
2023/04/11 04:42:33;;;;;;;1.70;1.15;;;;;;;;;;7389773;19;20348;-69
2023/04/11 04:44:58;;;;;;;3.05;1.20;;;;;;;;;;7388167;19;20027;-69
2023/04/11 04:47:30;;;;;;;2.38;1.48;;;;;;;;;;7389153;19;19994;-68
2023/04/11 04:49:55;;;;;;;;;;;;;;;;;;7393906;19;20026;-69
2023/04/11 04:52:22;;;;;;;6.63;1.48;;;;;;;;;;7391563;19;20650;-71
2023/04/11 04:54:48;;;;;;;3.25;1.13;;;;;;;;;;7391117;19;20013;-68
2023/04/11 04:57:13;;;;;;;3.78;1.30;;;;;;;;;;7392057;19;20464;-69
2023/04/11 04:59:38;;;;;;;3.85;1.27;;;;;;;;;;7388741;19;19999;-68
2023/04/11 05:02:03;;;;;;;6.40;1.65;;;;;;;;;;7385575;19;19999;-69
2023/04/11 05:04:30;;;;;;;1.90;1.15;;;;;;;;;;7387167;19;20007;-69
2023/04/11 05:06:56;;;;;;;4.03;1.23;;;;;;;;;;7385847;19;20002;-69
2023/04/11 05:09:21;;;;;;;4.25;1.50;;;;;;;;;;7387145;19;20009;-69
2023/04/11 05:11:46;;;;;;;7.20;1.52;;;;;;;;;;7388287;19;20003;-70
2023/04/11 05:14:12;;;;;;;5.82;1.30;;;;;;;;;;7390375;19;20023;-68
2023/04/11 05:16:40;;;;;;;6.93;1.55;;;;;;;;;;7389023;19;20006;-70
2023/04/11 05:19:06;;;;;;;7.15;1.63;;;;;;;;;;7388060;19;20003;-69
2023/04/11 05:21:31;;;;;;;6.05;1.58;;;;;;;;;;7386001;19;20030;-68
2023/04/11 05:23:56;;;;;;;5.40;1.45;;;;;;;;;;7386330;19;20026;-68
2023/04/11 05:26:22;;;;;;;6.65;1.65;;;;;;;;;;7389874;19;20005;-70
2023/04/11 05:28:47;;;;;;;7.50;1.63;;;;;;;;;;7388437;19;20002;-70
2023/04/11 05:31:12;;;;;;;6.88;1.50;;;;;;;;;;7390135;19;20035;-69
2023/04/11 05:33:39;;;;;;;4.53;1.52;;;;;;;;;;7390853;19;20002;-70
2023/04/11 05:36:05;;;;;;;6.18;1.73;;;;;;;;;;7392753;19;20398;-69
2023/04/11 05:38:34;;;;;;;3.63;1.45;;;;;;;;;;7392934;19;20366;-69
2023/04/11 05:40:59;;;;;;;4.72;1.60;;;;;;;;;;7389632;19;20006;-69
2023/04/11 05:43:24;;;;;;;5.93;1.60;;;;;;;;;;7386283;19;19998;-70
2023/04/11 05:45:50;;;;;;;8.02;1.88;;;;;;;;;;7392000;19;20002;-70
2023/04/11 05:48:18;;;;;;;8.27;1.60;;;;;;;;;;7392615;19;20031;-69
2023/04/11 05:50:44;;;;;;;4.65;1.40;;;;;;;;;;7391125;19;20008;-68
2023/04/11 05:53:09;;;;;;;4.72;1.42;;;;;;;;;;7389303;19;20003;-68
2023/04/11 05:55:35;;;;;;;4.00;1.25;;;;;;;;;;7391005;19;19991;-69
2023/04/11 05:58:01;;;;;;;3.60;1.20;;;;;;;;;;7391905;19;20479;-69
2023/04/11 06:00:29;;;;;;;8.25;1.90;;;;;;;;;;7388673;19;20004;-69
2023/04/11 06:02:55;;;;;;;5.68;1.60;;;;;;;;;;7384775;19;20472;-69
2023/04/11 06:05:21;;;;;;;6.60;1.40;;;;;;;;;;7385866;19;20020;-69
2023/04/11 06:07:46;;;;;;;3.67;1.45;;;;;;;;;;7389017;19;20006;-69
2023/04/11 06:10:12;;;;;;;2.50;1.10;;;;;;;;;;7385405;19;20024;-70
2023/04/11 06:12:37;;;;;;;6.80;1.40;;;;;;;;;;7389281;19;20006;-70
2023/04/11 06:15:03;;;;;;;6.72;1.38;;;;;;;;;;7390878;19;19999;-69
2023/04/11 06:17:29;;;;;;;6.18;1.30;;;;;;;;;;7391334;19;20376;-69
2023/04/11 06:19:54;;;;;;;8.35;1.63;;;;;;;;;;7389991;19;19995;-70
2023/04/11 06:22:19;;;;;;;4.22;1.30;;;;;;;;;;7389179;19;20400;-69
2023/04/11 06:24:45;;;;;;;5.47;1.52;;;;;;;;;;7387542;19;20472;-69
2023/04/11 06:27:10;;;;;;;5.53;1.40;;;;;;;;;;7391192;19;20002;-68
2023/04/11 06:29:40;;;;;;;3.30;1.20;;;;;;;;;;7389710;19;19999;-68
2023/04/11 06:32:06;;;;;;;2.55;1.42;;;;;;;;;;7388559;19;20003;-70
2023/04/11 06:34:32;;;;;;;4.72;1.05;;;;;;;;;;7389438;19;20018;-69
2023/04/11 06:36:57;;;;;;;6.15;1.63;;;;;;;;;;7388427;19;20007;-70
2023/04/11 06:39:23;;;;;;;6.70;1.80;;;;;;;;;;7390693;19;19998;-69
2023/04/11 06:41:48;;;;;;;5.03;1.55;;;;;;;;;;7385543;19;20005;-68
2023/04/11 06:44:13;;;;;;;4.30;1.58;;;;;;;;;;7387255;19;19998;-69
2023/04/11 06:46:39;;;;;;;3.45;1.23;;;;;;;;;;7397624;19;20002;-69
2023/04/11 06:49:07;;;;;;;5.70;1.50;;;;;;;;;;7399101;19;20112;-69
2023/04/11 06:51:36;;;;;;;5.78;1.58;;;;;;;;;;7395212;19;20010;-67
2023/04/11 06:54:02;;;;;;;7.57;1.88;;;;;;;;;;7395152;19;20073;-70
2023/04/11 06:56:28;;;;;;;8.32;1.80;;;;;;;;;;7396584;19;20009;-69
2023/04/11 06:58:53;;;;;;;5.90;1.40;;;;;;;;;;7398321;19;20010;-69
2023/04/11 07:01:19;;;;;;;7.47;1.58;;;;;;;;;;7391638;19;20001;-69
2023/04/11 07:03:48;;;;;;;5.78;1.80;;;;;;;;;;7397060;19;20330;-69
2023/04/11 07:06:14;;;;;;;7.47;1.77;;;;;;;;;;7396826;19;20066;-68
2023/04/11 07:08:39;;;;;;;7.15;1.58;;;;;;;;;;7397227;19;20007;-68
2023/04/11 07:11:05;;;;;;;6.75;1.52;;;;;;;;;;7396838;19;20003;-68
2023/04/11 07:13:30;;;;;;;5.55;1.48;;;;;;;;;;7396589;19;20512;-68
2023/04/11 07:15:56;;;;;;;8.02;1.55;;;;;;;;;;7395892;19;19998;-68
2023/04/11 07:18:21;;;;;;;6.75;1.50;;;;;;;;;;7393642;19;20006;-68
2023/04/11 07:20:47;;;;;;;11.27;1.52;;;;;;;;;;7394483;19;20003;-68
2023/04/11 07:23:13;;;;;;;8.75;1.85;;;;;;;;;;7394827;19;20694;-69
2023/04/11 07:25:38;;;;;;;5.53;1.60;;;;;;;;;;7395044;19;20074;-69
2023/04/11 07:28:07;;;;;;;10.20;1.80;;;;;;;;;;7393791;19;19999;-69
2023/04/11 07:30:34;;;;;;;4.93;1.50;;;;;;;;;;7395155;19;20559;-69
2023/04/11 07:33:00;;;;;;;6.25;1.55;;;;;;;;;;7386898;19;20013;-69
2023/04/11 07:35:27;;;;;;;6.22;1.52;;;;;;;;;;7395237;19;20011;-68
2023/04/11 07:37:52;;;;;;;8.20;1.80;;;;;;;;;;7396411;19;20003;-68
2023/04/11 07:40:17;;;;;;;6.50;1.48;;;;;;;;;;7393018;19;20475;-68
2023/04/11 07:42:45;;;;;;;12.45;1.85;;;;;;;;;;7395228;19;20002;-69
2023/04/11 07:45:10;;;;;;;6.47;1.38;;;;;;;;;;7393471;19;20010;-68
2023/04/11 07:47:35;;;;;;;8.80;1.73;;;;;;;;;;7395095;19;20084;-69
2023/04/11 07:50:01;;;;;;;6.15;1.40;;;;;;;;;;7395266;19;20030;-69
2023/04/11 07:52:26;;;;;;;8.73;3.20;;;;;;;;;;7393929;19;20010;-69
2023/04/11 07:54:51;;;;;;;8.13;1.90;;;;;;;;;;7392413;19;19994;-69
2023/04/11 07:57:17;;;;;;;9.30;2.58;;;;;;;;;;7396090;19;19994;-69
2023/04/11 07:59:42;;;;;;;7.68;1.50;;;;;;;;;;7392632;19;20135;-69
2023/04/11 08:02:08;;;;;;;7.88;1.77;;;;;;;;;;7392580;19;20506;-69
2023/04/11 08:04:35;;;;;;;5.07;1.33;;;;;;;;;;7392578;19;20452;-69
2023/04/11 08:07:01;;;;;;;9.27;1.83;;;;;;;;;;7395201;19;20003;-69
2023/04/11 08:09:26;;;;;;;7.75;2.13;;;;;;;;;;7391106;19;20003;-68
2023/04/11 08:11:52;;;;;;;12.63;2.05;;;;;;;;;;7393518;19;20035;-69
2023/04/11 08:14:18;;;;;;;5.82;1.48;;;;;;;;;;7392000;19;20002;-68
2023/04/11 08:16:43;;;;;;;9.23;1.60;;;;;;;;;;7393961;19;20003;-67
2023/04/11 08:19:10;;;;;;;4.70;1.20;;;;;;;;;;7396095;19;19999;-69
2023/04/11 08:21:36;;;;;;;9.02;1.70;;;;;;;;;;7390082;19;20027;-68
2023/04/11 08:24:01;;;;;;;4.80;1.25;;;;;;;;;;7391723;19;20003;-70
2023/04/11 08:26:26;;;;;;;6.60;1.77;;;;;;;;;;7392061;19;20027;-69
2023/04/11 08:28:52;;;;;;;9.90;1.80;;;;;;;;;;7395353;19;19998;-69
2023/04/11 08:31:17;;;;;;;7.57;2.42;;;;;;;;;;7392820;19;20066;-70
2023/04/11 08:33:42;;;;;;;8.68;1.70;;;;;;;;;;7391053;19;20005;-69
2023/04/11 08:36:08;;;;;;;5.07;1.75;;;;;;;;;;7392235;19;19999;-69
2023/04/11 08:38:35;;;;;;;8.55;1.77;;;;;;;;;;7392342;19;20061;-69
2023/04/11 08:41:01;;;;;;;12.18;2.20;;;;;;;;;;7391186;19;20027;-69
2023/04/11 08:43:26;;;;;;;6.30;1.88;;;;;;;;;;7390751;19;20002;-68
2023/04/11 08:45:52;;;;;;;6.57;1.48;;;;;;;;;;7391291;19;20002;-68
2023/04/11 08:48:24;;;;;;;7.65;1.50;;;;;;;;;;7393104;19;20511;-69
2023/04/11 08:50:49;;;;;;;6.40;1.88;;;;;;;;;;7392363;19;19994;-69
2023/04/11 08:53:17;;;;;;;4.80;1.90;;;;;;;;;;7393117;19;20487;-69
2023/04/11 08:55:45;;;;;;;7.63;1.55;;;;;;;;;;7391730;19;20064;-68
2023/04/11 08:58:10;;;;;;;6.85;1.50;;;;;;;;;;7395023;19;20413;-68
2023/04/11 09:00:36;;;;;;;10.20;1.92;;;;;;;;;;7391114;19;19998;-68
2023/04/11 09:03:04;;;;;;;7.80;1.77;;;;;;;;;;7393044;19;20018;-69
2023/04/11 09:05:42;;;;;;;6.25;1.40;;;;;;;;;;7391119;19;20085;-68
2023/04/11 09:08:09;;;;;;;5.97;1.70;;;;;;;;;;7390973;19;20006;-68
2023/04/11 09:10:36;;;;;;;4.97;1.65;;;;;;;;;;7391529;19;20082;-68
2023/04/11 09:13:18;;;;;;;4.82;1.38;;;;;;;;;;7392463;19;20375;-67
2023/04/11 09:15:44;;;;;;;7.43;1.90;;;;;;;;;;7389222;19;20005;-68
2023/04/11 09:18:09;;;;;;;10.25;2.65;;;;;;;;;;7392663;19;20456;-69
2023/04/11 09:20:34;;;;;;;6.15;1.63;;;;;;;;;;7389117;19;20476;-69
2023/04/11 09:23:00;;;;;;;8.93;2.20;;;;;;;;;;7391331;19;20355;-69
2023/04/11 09:25:25;;;;;;;5.97;1.48;;;;;;;;;;7391721;19;20078;-69
2023/04/11 09:28:06;;;;;;;6.10;1.65;;;;;;;;;;7392015;19;20007;-69
2023/04/11 09:30:32;;;;;;;7.25;1.48;;;;;;;;;;7390864;19;20366;-69
2023/04/11 09:32:57;;;;;;;4.20;1.20;;;;;;;;;;7389967;19;20026;-69
2023/04/11 09:35:24;;;;;;;6.07;1.48;;;;;;;;;;7389498;19;19994;-68
2023/04/11 09:37:59;;;;;;;5.13;1.42;;;;;;;;;;7390202;19;20031;-68
2023/04/11 09:40:27;;;;;;;4.65;1.40;;;;;;;;;;7388855;19;20074;-69
2023/04/11 09:43:01;;;;;;;7.07;1.50;;;;;;;;;;7391636;19;20006;-68
2023/04/11 09:45:27;;;;;;;4.25;1.42;;;;;;;;;;7391624;19;20452;-69
2023/04/11 09:47:55;;;;;;;3.97;1.40;;;;;;;;;;7390138;19;20048;-69
2023/04/11 09:50:21;;;;;;;4.50;1.40;;;;;;;;;;7389611;19;20007;-70
2023/04/11 09:52:47;;;;;;;6.78;1.73;;;;;;;;;;7391109;19;20547;-70
2023/04/11 09:55:21;;;;;;;6.55;1.63;;;;;;;;;;7391804;19;20021;-69
2023/04/11 09:57:50;;;;;;;6.43;2.33;;;;;;;;;;7390933;19;19995;-68
2023/04/11 10:00:21;;;;;;;8.82;2.72;;;;;;;;;;7387952;19;20022;-70
2023/04/11 10:02:48;;;;;;;5.97;1.60;;;;;;;;;;7389643;19;20017;-69
2023/04/11 10:05:17;;;;;;;5.38;1.42;;;;;;;;;;7385298;19;20022;-70
2023/04/11 10:08:04;;;;;;;3.92;1.15;;;;;;;;;;7387782;19;20460;-71
2023/04/11 10:10:30;;;;;;;3.22;1.30;;;;;;;;;;7387769;19;20069;-69
2023/04/11 10:12:55;;;;;;;5.10;1.50;;;;;;;;;;7388816;19;20011;-69
2023/04/11 10:15:21;;;;;;;3.17;1.15;;;;;;;;;;7382494;19;19998;-70
2023/04/11 10:18:09;;;;;;;3.58;1.13;;;;;;;;;;7387348;19;19998;-69
2023/04/11 10:20:36;;;;;;;5.93;2.03;;;;;;;;;;7387661;19;20026;-69
2023/04/11 10:23:02;;;;;;;6.88;1.75;;;;;;;;;;7391199;19;20014;-70
2023/04/11 10:25:27;;;;;;;6.72;1.58;;;;;;;;;;7388117;19;19999;-69
2023/04/11 10:28:00;;;;;;;5.55;1.25;;;;;;;;;;7389050;19;19991;-69
2023/04/11 10:30:40;;;;;;;4.35;1.45;;;;;;;;;;7389286;19;19994;-70
2023/04/11 10:33:09;;;;;;;5.43;1.52;;;;;;;;;;7391194;19;20006;-69
2023/04/11 10:35:54;;;;;;;6.45;1.50;;;;;;;;;;7388575;19;19999;-70
2023/04/11 10:38:48;;;;;;;5.68;1.33;;;;;;;;;;7388869;19;20466;-67
2023/04/11 10:41:17;;;;;;;4.72;1.30;;;;;;;;;;7387280;19;19994;-67
2023/04/11 10:43:43;;;;;;;7.00;1.52;;;;;;;;;;7390193;19;19999;-68
2023/04/11 10:46:17;;;;;;;2.85;1.15;;;;;;;;;;7390262;19;20001;-68
2023/04/11 10:49:03;;;;;;;8.68;1.63;;;;;;;;;;7391225;19;20014;-67
2023/04/11 10:51:31;;;;;;;4.93;1.60;;;;;;;;;;7387237;19;20002;-67
2023/04/11 10:54:00;;;;;;;4.88;1.33;;;;;;;;;;7386671;19;20417;-67
2023/04/11 10:56:52;;;;;;;5.03;1.23;;;;;;;;;;7388745;19;20556;-67
2023/04/11 10:59:30;;;;;;;4.80;1.40;;;;;;;;;;7387487;19;20360;-67
2023/04/11 11:01:56;;;;;;;4.63;1.45;;;;;;;;;;7386855;19;20002;-67
2023/04/11 11:04:37;;;;;;;5.03;1.30;;;;;;;;;;7388237;19;19995;-67
2023/04/11 11:07:03;;;;;;;;;;;;;;;;;;7391735;19;20016;-67
2023/04/11 11:09:29;;;;;;;3.47;1.13;;;;;;;;;;7388259;19;19911;-67
2023/04/11 11:12:11;;;;;;;3.80;1.23;;;;;;;;;;7387221;19;20070;-66
2023/04/11 11:14:38;;;;;;;4.53;1.60;;;;;;;;;;7388627;19;19999;-67
2023/04/11 11:17:03;;;;;;;2.50;1.10;;;;;;;;;;7389295;19;19991;-68
2023/04/11 11:19:30;;;;;;;4.65;1.08;;;;;;;;;;7387896;19;20703;-67
2023/04/11 11:21:58;;;;;;;7.07;1.55;;;;;;;;;;7386042;19;20348;-67
2023/04/11 11:24:25;;;;;;;2.75;1.30;;;;;;;;;;7386304;19;20002;-67
2023/04/11 11:26:52;;;;;;;3.78;1.20;;;;;;;;;;7389246;19;20379;-67
2023/04/11 11:29:30;;;;;;;4.25;1.60;;;;;;;;;;7389907;19;20050;-67
2023/04/11 11:31:56;;;;;;;5.43;1.50;;;;;;;;;;7390736;19;20009;-67
2023/04/11 11:34:31;;;;;;;6.25;1.60;;;;;;;;;;7394349;19;20412;-67
2023/04/11 11:36:58;;;;;;;5.32;1.25;;;;;;;;;;7395128;19;20464;-68
2023/04/11 11:39:24;;;;;;;4.78;1.38;;;;;;;;;;7392979;19;20010;-68
2023/04/11 11:41:50;;;;;;;3.40;1.10;;;;;;;;;;7392527;19;19999;-68
2023/04/11 11:44:27;;;;;;;6.93;1.30;;;;;;;;;;7394085;19;19999;-69
2023/04/11 11:47:07;;;;;;;6.03;1.45;;;;;;;;;;7396222;19;20009;-70
2023/04/11 11:49:42;;;;;;;;;;;;;;;;;;7393209;19;19991;-68
2023/04/11 11:52:08;;;;;;;7.20;1.85;;;;;;;;;;7392379;19;19915;-69
2023/04/11 11:54:45;;;;;;;3.33;1.27;;;;;;;;;;7392281;19;20516;-69
2023/04/11 11:57:18;;;;;;;4.43;1.20;;;;;;;;;;7397426;19;19995;-69
2023/04/11 11:59:43;;;;;;;5.70;1.60;;;;;;;;;;7396126;19;20034;-69
2023/04/11 12:02:09;;;;;;;5.15;1.30;;;;;;;;;;7390344;19;19994;-69
2023/04/11 12:04:36;;;;;;;5.97;1.38;;;;;;;;;;7393166;19;19999;-68
2023/04/11 12:07:09;;;;;;;4.28;1.40;;;;;;;;;;7393271;19;20102;-69
2023/04/11 12:09:34;;;;;;;4.43;1.50;;;;;;;;;;7395081;19;20009;-69
2023/04/11 12:12:00;;;;;;;3.67;1.40;;;;;;;;;;7392807;19;20331;-68
2023/04/11 12:14:25;;;;;;;2.78;1.10;;;;;;;;;;7392514;19;20106;-70
2023/04/11 12:16:54;;;;;;;4.40;1.40;;;;;;;;;;7395077;19;20017;-69
2023/04/11 12:19:19;;;;;;;3.83;1.17;;;;;;;;;;7392063;19;19998;-68
2023/04/11 12:21:44;;;;;;;4.55;1.33;;;;;;;;;;7389636;19;20013;-69
2023/04/11 12:24:10;;;;;;;4.65;1.40;;;;;;;;;;7392249;19;20017;-69
2023/04/11 12:26:35;;;;;;;2.13;1.25;;;;;;;;;;7394319;19;20019;-69
2023/04/11 12:29:02;;;;;;;2.85;1.08;;;;;;;;;;7395395;19;19995;-69
2023/04/11 12:31:27;;;;;;;4.55;1.20;;;;;;;;;;7390805;19;20521;-69
2023/04/11 12:33:53;;;;;;;5.18;1.15;;;;;;;;;;7392041;19;20007;-68
2023/04/11 12:36:18;;;;;;;4.47;1.13;;;;;;;;;;7393863;19;19998;-69
2023/04/11 12:38:43;;;;;;;3.58;1.30;;;;;;;;;;7394230;19;20009;-69
2023/04/11 12:41:09;;;;;;;3.03;1.40;;;;;;;;;;7391902;19;19994;-69
2023/04/11 12:43:34;;;;;;;4.35;1.10;;;;;;;;;;7391074;19;19998;-69
2023/04/11 12:46:00;;;;;;;2.17;0.95;;;;;;;;;;7392459;19;20026;-68
2023/04/11 12:48:25;;;;;;;2.22;0.85;;;;;;;;;;7393271;19;20037;-68
2023/04/11 12:50:50;;;;;;;5.65;1.35;;;;;;;;;;7391517;19;20100;-74
2023/04/11 12:53:16;;;;;;;2.20;0.95;;;;;;;;;;7393608;19;20003;-75
2023/04/11 12:55:41;;;;;;;3.67;1.30;;;;;;;;;;7392185;19;20034;-75
2023/04/11 12:58:08;;;;;;;4.93;1.42;;;;;;;;;;7387935;19;20026;-68
2023/04/11 13:00:33;;;;;;;4.20;1.20;;;;;;;;;;7384850;19;20006;-68
2023/04/11 13:02:59;;;;;;;2.83;1.00;;;;;;;;;;7389119;19;20002;-69
2023/04/11 13:05:25;;;;;;;3.67;1.17;;;;;;;;;;7386933;19;20390;-67
2023/04/11 13:07:50;;;;;;;4.22;0.93;;;;;;;;;;7386082;19;20497;-65
2023/04/11 13:10:16;;;;;;;5.75;1.25;;;;;;;;;;7388316;19;19998;-63
2023/04/11 13:12:43;;;;;;;5.82;1.30;;;;;;;;;;7389788;19;20083;-64
2023/04/11 13:15:10;;;;;;;3.15;1.00;;;;;;;;;;7389767;19;20022;-64
2023/04/11 13:17:36;;;;;;;3.60;1.10;;;;;;;;;;7385995;19;20527;-70
2023/04/11 13:20:09;;;;;;;3.10;0.98;;;;;;;;;;7393388;19;20058;-69
2023/04/11 13:22:41;;;;;;;3.95;1.08;;;;;;;;;;7392382;19;20389;-70
2023/04/11 13:25:07;;;;;;;3.67;1.50;;;;;;;;;;7385909;19;19999;-71
2023/04/11 13:27:33;;;;;;;1.02;0.88;;;;;;;;;;7388818;19;20002;-71
2023/04/11 13:29:58;;;;;;;3.83;1.17;;;;;;;;;;7389564;19;20326;-72
2023/04/11 13:32:23;;;;;;;2.88;1.20;;;;;;;;;;7388502;19;20006;-69
2023/04/11 13:34:49;;;;;;;4.20;1.30;;;;;;;;;;7390951;19;20023;-71
2023/04/11 13:37:14;;;;;;;3.20;1.23;;;;;;;;;;7390194;19;19998;-71
2023/04/11 13:39:39;;;;;;;8.20;1.50;;;;;;;;;;7391383;19;20022;-66
2023/04/11 13:42:05;;;;;;;3.08;1.10;;;;;;;;;;7387432;19;19995;-65
2023/04/11 13:44:30;;;;;;;4.68;1.25;;;;;;;;;;7390882;19;20019;-66
2023/04/11 13:46:56;;;;;;;3.47;1.30;;;;;;;;;;7392380;19;19999;-68
2023/04/11 13:49:21;;;;;;;2.67;0.95;;;;;;;;;;7392835;19;20013;-67
2023/04/11 13:51:46;;;;;;;3.83;1.20;;;;;;;;;;7386811;19;20002;-67
2023/04/11 13:54:12;;;;;;;3.33;1.38;;;;;;;;;;7388626;19;20015;-66
2023/04/11 13:56:37;;;;;;;4.28;1.20;;;;;;;;;;7391771;19;20009;-66
2023/04/11 13:59:02;;;;;;;2.08;1.13;;;;;;;;;;7392029;19;20484;-69
2023/04/11 14:01:28;;;;;;;2.92;1.13;;;;;;;;;;7390399;19;20002;-68
2023/04/11 14:03:53;;;;;;;4.45;1.42;;;;;;;;;;7390863;19;20002;-69
2023/04/11 14:06:18;;;;;;;7.53;1.02;;;;;;;;;;7389953;19;19998;-68
2023/04/11 14:08:44;;;;;;;3.60;1.17;;;;;;;;;;7391945;19;20002;-70
2023/04/11 14:11:09;;;;;;;6.05;1.48;;;;;;;;;;7389657;19;20403;-69
2023/04/11 14:13:35;;;;;;;3.67;1.20;;;;;;;;;;7388771;19;20551;-69
2023/04/11 14:16:00;;;;;;;3.75;1.13;;;;;;;;;;7391271;19;20003;-69
2023/04/11 14:18:25;;;;;;;6.40;1.30;;;;;;;;;;7389467;19;20022;-69
2023/04/11 14:20:51;;;;;;;6.68;1.10;;;;;;;;;;7388822;19;20510;-69
2023/04/11 14:23:17;;;;;;;6.82;1.40;;;;;;;;;;7390705;19;20003;-69
2023/04/11 14:25:42;;;;;;;4.43;1.35;;;;;;;;;;7391049;19;20374;-69
2023/04/11 14:28:08;;;;;;;5.30;1.23;;;;;;;;;;7387088;19;20003;-69
2023/04/11 14:30:33;;;;;;;3.83;1.13;;;;;;;;;;7388250;19;20009;-70
2023/04/11 14:32:59;;;;;;;3.40;1.00;;;;;;;;;;7390611;19;20326;-69
2023/04/11 14:35:25;;;;;;;2.75;1.13;;;;;;;;;;7390959;19;20472;-69
2023/04/11 14:37:50;;;;;;;2.90;1.20;;;;;;;;;;7388574;19;20003;-67
2023/04/11 14:40:15;;;;;;;4.60;1.33;;;;;;;;;;7387947;19;20111;-71
2023/04/11 14:42:41;;;;;;;4.32;1.08;;;;;;;;;;7367134;19;20009;-69